Time;durP1;ratioP1;P1;durP2;ratioP2;P2;SDS_P1;SDS_P2;PMS_P1;PMS_P2;Temp;Humidity;BMP_temperature;BMP_pressure;BME280_temperature;BME280_humidity;BME280_pressure;Samples;Min_cycle;Max_cycle;Signal;HPM_P1;HPM_P2
2021/07/13 00:02:04;;;;;;;25.13;10.80;;;25.20;59.10;;;;;;5034391;28;20500;-79
2021/07/13 00:04:30;;;;;;;22.25;11.23;;;25.10;59.20;;;;;;5034434;28;20021;-79
2021/07/13 00:06:56;;;;;;;19.25;10.90;;;25.10;59.00;;;;;;5034002;28;20057;-79
2021/07/13 00:09:22;;;;;;;19.63;11.50;;;25.10;59.30;;;;;;5034026;28;20033;-79
2021/07/13 00:11:48;;;;;;;21.20;11.30;;;25.10;58.90;;;;;;5033189;28;20022;-78
2021/07/13 00:14:15;;;;;;;22.30;11.30;;;25.10;59.50;;;;;;5034192;28;20506;-80
2021/07/13 00:16:41;;;;;;;17.20;10.07;;;25.00;58.30;;;;;;5025067;28;20044;-77
2021/07/13 00:19:07;;;;;;;23.27;11.70;;;25.10;58.50;;;;;;5022164;28;20028;-79
2021/07/13 00:21:33;;;;;;;22.17;10.45;;;25.10;59.00;;;;;;5033989;28;20027;-78
2021/07/13 00:23:59;;;;;;;23.25;10.95;;;25.10;58.70;;;;;;5034048;28;20029;-78
2021/07/13 00:26:26;;;;;;;19.60;9.98;;;25.10;59.20;;;;;;5033856;28;20112;-81
2021/07/13 00:28:52;;;;;;;23.02;10.73;;;25.00;58.10;;;;;;5016263;28;20033;-81
2021/07/13 00:31:18;;;;;;;24.63;11.18;;;25.00;59.30;;;;;;5033935;28;20029;-81
2021/07/13 00:33:44;;;;;;;17.17;10.10;;;25.00;59.00;;;;;;5015655;28;20472;-81
2021/07/13 00:36:10;;;;;;;24.30;11.05;;;24.90;58.80;;;;;;5016096;28;20022;-79
2021/07/13 00:38:36;;;;;;;19.05;11.43;;;25.00;59.30;;;;;;5033605;28;20083;-79
2021/07/13 00:41:02;;;;;;;17.77;9.90;;;24.90;59.80;;;;;;5034076;28;20096;-80
2021/07/13 00:43:28;;;;;;;15.02;10.25;;;24.90;59.20;;;;;;5033532;28;20032;-79
2021/07/13 00:45:53;;;;;;;18.70;10.27;;;24.90;59.10;;;;;;5033395;28;20021;-80
2021/07/13 00:48:21;;;;;;;17.60;10.27;;;24.90;59.90;;;;;;5033498;28;20029;-81
2021/07/13 00:50:47;;;;;;;15.85;9.02;;;24.90;59.20;;;;;;5033200;28;20021;-79
2021/07/13 00:53:13;;;;;;;17.13;10.52;;;24.90;58.60;;;;;;5033548;28;20044;-79
2021/07/13 00:55:39;;;;;;;15.45;10.30;;;24.90;59.00;;;;;;5033440;28;20052;-79
2021/07/13 00:58:05;;;;;;;12.02;9.60;;;24.90;58.90;;;;;;5033715;28;20557;-80
2021/07/13 01:00:32;;;;;;;14.30;10.32;;;24.90;58.50;;;;;;5033350;28;20104;-79
2021/07/13 01:03:01;;;;;;;13.07;8.82;;;24.80;58.70;;;;;;5033051;28;20021;-80
2021/07/13 01:05:42;;;;;;;13.50;8.95;;;24.80;58.00;;;;;;5022795;28;20092;-81
2021/07/13 01:08:18;;;;;;;16.90;8.98;;;24.80;58.70;;;;;;5031714;28;20064;-80
2021/07/13 01:11:02;;;;;;;18.58;9.90;;;24.80;58.70;;;;;;5015340;28;20018;-79
2021/07/13 01:13:35;;;;;;;13.38;9.15;;;24.80;59.00;;;;;;5008034;28;20048;-80
2021/07/13 01:16:25;;;;;;;14.05;9.20;;;24.70;59.60;;;;;;5030849;28;20025;-80
2021/07/13 01:19:02;;;;;;;16.58;10.10;;;24.70;58.80;;;;;;5011895;28;20037;-80
2021/07/13 01:21:50;;;;;;;11.87;9.13;;;24.70;59.40;;;;;;5032688;28;20049;-78
2021/07/13 01:24:54;;;;;;;14.90;8.80;;;24.60;58.90;;;;;;5015307;28;20102;-80
2021/07/13 01:27:48;;;;;;;13.63;8.85;;;24.60;59.60;;;;;;5032619;28;20021;-78
2021/07/13 01:30:28;;;;;;;14.32;8.77;;;24.50;59.90;;;;;;5032892;28;20025;-79
2021/07/13 01:33:11;;;;;;;14.57;8.48;;;24.50;60.50;;;;;;5025377;28;20451;-78
2021/07/13 01:35:49;;;;;;;11.82;8.50;;;24.50;60.60;;;;;;5033770;28;20447;-79
2021/07/13 01:38:16;;;;;;;12.10;9.13;;;24.50;60.40;;;;;;5033082;28;20105;-79
2021/07/13 01:40:46;;;;;;;14.65;8.75;;;24.50;61.00;;;;;;5033534;28;20049;-79
2021/07/13 01:43:13;;;;;;;14.38;9.10;;;24.50;61.20;;;;;;5033063;28;20391;-78
2021/07/13 01:45:40;;;;;;;12.93;8.13;;;24.50;61.30;;;;;;5032632;28;20025;-79
2021/07/13 01:48:09;;;;;;;;;;;24.60;61.50;;;;;;5031904;28;20499;-79
2021/07/13 01:50:36;;;;;;;11.05;9.10;;;24.50;60.60;;;;;;5032354;28;20309;-79
2021/07/13 01:53:03;;;;;;;17.42;9.15;;;24.50;61.80;;;;;;5032330;28;20057;-79
2021/07/13 01:55:33;;;;;;;12.02;8.90;;;24.60;61.80;;;;;;5032420;28;20048;-79
2021/07/13 01:58:00;;;;;;;16.38;9.48;;;24.60;61.70;;;;;;5032398;28;20033;-79
2021/07/13 02:00:26;;;;;;;;;;;24.70;60.40;;;;;;5032401;28;20037;-79
2021/07/13 02:02:54;;;;;;;20.10;10.63;;;24.70;60.10;;;;;;5032367;28;20058;-80
2021/07/13 02:05:21;;;;;;;16.05;9.13;;;24.70;61.10;;;;;;5032260;28;20021;-79
2021/07/13 02:07:49;;;;;;;18.20;9.52;;;24.80;61.50;;;;;;5032035;28;20029;-80
2021/07/13 02:10:19;;;;;;;16.13;9.35;;;24.80;59.60;;;;;;5032237;28;20025;-80
2021/07/13 02:12:45;;;;;;;13.75;8.60;;;24.80;59.80;;;;;;5032090;28;20508;-81
2021/07/13 02:15:11;;;;;;;18.23;10.32;;;24.90;57.90;;;;;;5031815;28;20117;-80
2021/07/13 02:17:38;;;;;;;15.40;9.20;;;24.90;61.40;;;;;;5031577;28;20022;-78
2021/07/13 02:20:09;;;;;;;13.55;8.25;;;25.00;60.30;;;;;;5014214;28;20020;-80
2021/07/13 02:22:36;;;;;;;14.45;8.00;;;25.10;58.00;;;;;;5032981;28;20079;-78
2021/07/13 02:25:03;;;;;;;;;;;25.10;57.00;;;;;;5036565;28;20024;-80
2021/07/13 02:27:31;;;;;;;12.05;9.18;;;25.10;56.90;;;;;;5036033;28;19913;-80
2021/07/13 02:29:59;;;;;;;11.23;7.50;;;25.10;58.90;;;;;;5033482;28;20028;-79
2021/07/13 02:32:32;;;;;;;14.57;7.95;;;25.20;57.60;;;;;;5036057;28;20026;-79
2021/07/13 02:35:01;;;;;;;11.70;9.68;;;25.30;58.00;;;;;;5035913;28;20087;-79
2021/07/13 02:37:28;;;;;;;14.70;8.23;;;25.30;58.00;;;;;;5036023;28;20046;-80
2021/07/13 02:39:54;;;;;;;10.63;7.53;;;25.30;56.80;;;;;;5036011;28;20052;-79
2021/07/13 02:42:21;;;;;;;10.90;7.63;;;25.40;56.30;;;;;;5036111;28;20381;-79
2021/07/13 02:44:48;;;;;;;7.68;6.65;;;25.50;56.00;;;;;;5035906;28;20470;-79
2021/07/13 02:47:14;;;;;;;9.70;7.38;;;25.50;55.00;;;;;;5035670;28;20033;-79
2021/07/13 02:49:52;;;;;;;12.03;7.20;;;25.60;55.30;;;;;;5035807;28;20390;-78
2021/07/13 02:52:28;;;;;;;9.50;6.47;;;25.60;54.90;;;;;;5035609;28;20017;-79
2021/07/13 02:55:01;;;;;;;8.40;6.50;;;25.70;54.20;;;;;;5035737;28;20021;-80
2021/07/13 02:57:28;;;;;;;13.68;6.45;;;25.80;53.60;;;;;;5035435;28;20753;-79
2021/07/13 02:59:56;;;;;;;7.93;7.10;;;25.90;53.50;;;;;;5025651;28;20030;-79
2021/07/13 03:02:23;;;;;;;12.13;6.78;;;25.90;53.20;;;;;;5031837;28;20029;-79
2021/07/13 03:04:50;;;;;;;13.77;6.53;;;26.10;53.30;;;;;;5035757;28;20037;-78
2021/07/13 03:07:18;;;;;;;10.20;6.70;;;26.20;53.70;;;;;;5034741;28;20036;-80
2021/07/13 03:09:44;;;;;;;12.60;6.18;;;26.30;53.50;;;;;;5022540;28;20387;-79
2021/07/13 03:12:11;;;;;;;9.02;6.38;;;26.40;54.80;;;;;;5035478;28;20096;-80
2021/07/13 03:14:44;;;;;;;10.55;7.20;;;26.60;53.40;;;;;;5040375;28;20045;-78
2021/07/13 03:17:11;;;;;;;11.50;6.80;;;26.60;53.10;;;;;;5035485;28;20022;-79
2021/07/13 03:19:38;;;;;;;7.55;6.18;;;26.80;52.20;;;;;;5035376;28;20055;-78
2021/07/13 03:22:08;;;;;;;9.35;5.90;;;26.80;52.90;;;;;;5036621;28;20067;-78
2021/07/13 03:24:38;;;;;;;11.65;6.18;;;26.90;51.60;;;;;;5038707;28;20092;-78
2021/07/13 03:27:05;;;;;;;9.80;5.78;;;27.00;52.00;;;;;;5037596;28;20045;-78
2021/07/13 03:29:31;;;;;;;10.10;6.25;;;27.00;52.00;;;;;;5036314;28;20029;-78
2021/07/13 03:31:58;;;;;;;7.43;5.68;;;27.10;51.70;;;;;;5039475;28;20026;-78
2021/07/13 03:34:27;;;;;;;8.97;4.93;;;27.20;51.10;;;;;;5022197;28;20410;-80
2021/07/13 03:36:53;;;;;;;10.68;4.90;;;27.20;50.30;;;;;;5038163;28;20108;-79
2021/07/13 03:39:19;;;;;;;6.20;4.87;;;27.20;50.30;;;;;;5035588;28;20021;-77
2021/07/13 03:41:47;;;;;;;9.60;5.35;;;27.20;50.20;;;;;;5035280;28;20025;-79
2021/07/13 03:44:13;;;;;;;8.90;5.03;;;27.30;49.90;;;;;;5035666;28;20045;-79
2021/07/13 03:46:39;;;;;;;10.35;5.20;;;27.30;49.30;;;;;;5017958;28;20021;-79
2021/07/13 03:49:08;;;;;;;8.73;5.70;;;27.40;49.40;;;;;;5035009;28;20087;-79
2021/07/13 03:51:46;;;;;;;8.23;4.72;;;27.50;49.40;;;;;;5017293;28;20021;-79
2021/07/13 03:54:16;;;;;;;10.60;5.80;;;27.60;49.50;;;;;;5016965;28;20117;-77
2021/07/13 03:56:42;;;;;;;7.68;5.07;;;27.60;49.20;;;;;;5034645;28;20028;-79
2021/07/13 03:59:08;;;;;;;7.80;4.93;;;27.60;48.50;;;;;;5034333;28;20025;-80
2021/07/13 04:01:35;;;;;;;7.37;5.07;;;27.70;48.10;;;;;;5034630;28;20368;-80
2021/07/13 04:04:01;;;;;;;7.97;5.35;;;27.70;48.10;;;;;;5034197;28;20250;-79
2021/07/13 04:06:27;;;;;;;8.20;5.03;;;27.70;48.20;;;;;;5034621;28;20026;-79
2021/07/13 04:08:55;;;;;;;11.20;5.45;;;27.70;48.20;;;;;;5034394;28;20287;-81
2021/07/13 04:11:21;;;;;;;7.57;5.18;;;27.70;47.90;;;;;;5034229;28;20087;-80
2021/07/13 04:13:47;;;;;;;11.60;5.32;;;27.80;48.00;;;;;;5034261;28;20045;-80
2021/07/13 04:16:13;;;;;;;8.93;5.75;;;27.80;48.10;;;;;;5033971;28;20022;-80
2021/07/13 04:18:39;;;;;;;11.85;5.50;;;27.90;48.10;;;;;;5034692;28;20095;-79
2021/07/13 04:21:06;;;;;;;8.93;5.18;;;27.90;48.50;;;;;;5036322;28;20025;-89
2021/07/13 04:23:35;;;;;;;7.95;5.43;;;28.00;48.20;;;;;;5034364;28;20037;-80
2021/07/13 04:26:02;;;;;;;8.10;5.28;;;28.10;48.50;;;;;;5033817;28;20021;-80
2021/07/13 04:28:30;;;;;;;8.57;4.97;;;28.10;48.30;;;;;;5032766;28;20498;-81
2021/07/13 04:30:57;;;;;;;7.72;5.10;;;28.20;48.00;;;;;;5031429;28;20022;-80
2021/07/13 04:33:22;;;;;;;9.07;5.53;;;28.30;48.10;;;;;;5033621;28;20028;-81
2021/07/13 04:35:48;;;;;;;12.55;5.90;;;28.40;47.90;;;;;;5015896;28;20026;-79
2021/07/13 04:38:15;;;;;;;9.95;5.50;;;28.50;47.40;;;;;;5030063;28;20040;-78
2021/07/13 04:40:40;;;;;;;8.77;5.40;;;28.60;47.20;;;;;;5034988;28;20026;-82
2021/07/13 04:43:06;;;;;;;15.65;5.63;;;28.70;47.60;;;;;;5035109;28;20505;-82
2021/07/13 04:45:32;;;;;;;10.10;5.70;;;28.70;47.70;;;;;;5033595;28;20014;-82
2021/07/13 04:47:58;;;;;;;9.90;5.38;;;28.80;47.50;;;;;;5034266;28;20445;-85
2021/07/13 04:50:24;;;;;;;7.13;4.68;;;28.80;47.90;;;;;;5017755;28;20025;-89
2021/07/13 04:52:50;;;;;;;10.90;5.60;;;28.80;47.30;;;;;;5033894;28;20383;-80
2021/07/13 04:55:18;;;;;;;13.38;5.90;;;28.90;47.70;;;;;;5016527;28;20018;-81
2021/07/13 04:57:45;;;;;;;18.08;5.82;;;28.90;47.60;;;;;;5033192;28;20028;-80
2021/07/13 05:00:12;;;;;;;8.18;5.55;;;29.00;47.40;;;;;;5034302;28;20029;-85
2021/07/13 05:02:38;;;;;;;17.40;6.00;;;29.10;47.10;;;;;;5033194;28;20017;-77
2021/07/13 05:05:05;;;;;;;9.65;6.13;;;29.10;47.50;;;;;;5033099;28;20021;-78
2021/07/13 05:07:31;;;;;;;9.40;5.68;;;29.20;47.20;;;;;;5032827;28;20029;-78
2021/07/13 05:09:57;;;;;;;11.88;5.10;;;29.30;47.10;;;;;;5015483;28;20025;-78
2021/07/13 05:12:23;;;;;;;7.68;4.97;;;29.50;46.70;;;;;;5032732;28;20021;-78
2021/07/13 05:14:48;;;;;;;6.25;5.15;;;30.10;45.80;;;;;;5033020;28;20045;-79
2021/07/13 05:17:14;;;;;;;9.32;5.90;;;31.00;44.50;;;;;;5015094;28;20032;-79
2021/07/13 05:19:43;;;;;;;10.73;5.57;;;32.00;43.00;;;;;;5032656;28;20086;-79
2021/07/13 05:22:10;;;;;;;10.20;4.85;;;32.70;41.90;;;;;;5032932;28;20037;-80
2021/07/13 05:24:36;;;;;;;12.32;5.68;;;33.60;40.50;;;;;;5032871;28;20053;-79
2021/07/13 05:27:03;;;;;;;7.82;4.53;;;34.50;39.30;;;;;;5024597;28;20040;-79
2021/07/13 05:29:29;;;;;;;7.15;4.45;;;35.10;38.10;;;;;;5032877;28;20104;-79
2021/07/13 05:31:54;;;;;;;8.97;5.30;;;35.80;37.50;;;;;;5034317;28;20088;-79
2021/07/13 05:34:20;;;;;;;8.27;4.53;;;36.50;36.50;;;;;;5033669;28;20017;-80
2021/07/13 05:36:46;;;;;;;9.07;4.13;;;37.30;35.50;;;;;;5032767;28;20108;-80
2021/07/13 05:39:12;;;;;;;9.10;4.50;;;37.90;34.70;;;;;;5014881;28;20266;-78
2021/07/13 05:41:38;;;;;;;10.57;4.82;;;38.30;33.70;;;;;;5032391;28;20353;-78
2021/07/13 05:44:08;;;;;;;8.70;4.55;;;38.50;33.50;;;;;;5032504;28;20017;-80
2021/07/13 05:46:34;;;;;;;8.25;4.15;;;38.90;33.20;;;;;;5032787;28;20061;-78
2021/07/13 05:49:01;;;;;;;6.05;4.05;;;39.30;32.60;;;;;;5032565;28;20037;-79
2021/07/13 05:51:27;;;;;;;11.25;5.30;;;39.20;31.90;;;;;;5033255;28;20180;-80
2021/07/13 05:53:53;;;;;;;9.25;5.05;;;39.60;32.30;;;;;;5032742;28;20506;-79
2021/07/13 05:56:18;;;;;;;6.88;4.60;;;40.20;31.60;;;;;;5032632;28;20022;-79
2021/07/13 05:58:44;;;;;;;6.93;3.80;;;40.40;31.10;;;;;;5032134;28;20033;-78
2021/07/13 06:01:10;;;;;;;7.93;4.05;;;40.60;31.00;;;;;;5032223;28;20470;-78
2021/07/13 06:03:36;;;;;;;8.43;3.78;;;41.10;30.00;;;;;;5032209;28;20108;-80
2021/07/13 06:06:02;;;;;;;6.97;3.75;;;41.70;29.30;;;;;;5031814;28;20030;-79
2021/07/13 06:08:28;;;;;;;7.90;3.72;;;41.50;29.30;;;;;;5032042;28;20041;-79
2021/07/13 06:10:54;;;;;;;4.45;3.00;;;41.70;29.00;;;;;;5032067;28;20099;-80
2021/07/13 06:13:19;;;;;;;8.52;3.83;;;42.10;28.60;;;;;;5032326;28;20033;-78
2021/07/13 06:15:46;;;;;;;4.05;3.40;;;43.20;28.40;;;;;;5031863;28;20497;-80
2021/07/13 06:18:18;;;;;;;7.15;3.47;;;44.30;28.00;;;;;;5032185;28;20472;-79
2021/07/13 06:20:44;;;;;;;8.45;2.90;;;45.10;27.40;;;;;;5032135;28;20508;-78
2021/07/13 06:23:10;;;;;;;;;;;44.80;26.80;;;;;;5031938;28;20057;-81
2021/07/13 06:25:36;;;;;;;6.60;3.30;;;45.40;28.00;;;;;;5026700;28;19905;-80
2021/07/13 06:28:02;;;;;;;5.13;2.83;;;46.00;26.80;;;;;;5031906;28;20041;-79
2021/07/13 06:30:28;;;;;;;5.85;3.35;;;46.30;26.60;;;;;;5031838;28;20018;-80
2021/07/13 06:32:54;;;;;;;5.68;3.78;;;;;;;;;;5031832;28;20032;-80
2021/07/13 06:35:23;;;;;;;5.93;3.83;;;;;;;;;;5031835;28;20033;-79
2021/07/13 06:37:49;;;;;;;5.82;3.28;;;48.80;25.00;;;;;;5031682;28;20658;-78
2021/07/13 06:40:16;;;;;;;5.72;3.42;;;48.80;25.10;;;;;;5031773;28;20028;-81
2021/07/13 06:42:43;;;;;;;4.57;2.60;;;48.80;24.70;;;;;;5031981;28;20029;-79
2021/07/13 06:45:09;;;;;;;7.40;3.08;;;48.90;24.80;;;;;;5031843;28;20025;-81
2021/07/13 06:47:35;;;;;;;7.85;3.13;;;48.10;24.60;;;;;;5031430;28;20108;-79
2021/07/13 06:50:01;;;;;;;6.80;3.50;;;48.00;24.90;;;;;;5031826;28;20121;-79
2021/07/13 06:52:27;;;;;;;5.13;3.13;;;47.80;24.90;;;;;;5031654;28;20103;-78
2021/07/13 06:54:53;;;;;;;4.72;3.38;;;48.30;24.80;;;;;;5031780;28;20056;-81
2021/07/13 06:57:21;;;;;;;5.65;2.90;;;47.80;24.80;;;;;;5031606;28;20024;-80
2021/07/13 06:59:47;;;;;;;5.00;3.30;;;47.90;24.80;;;;;;5031894;28;20021;-80
2021/07/13 07:02:13;;;;;;;4.47;2.95;;;47.70;25.40;;;;;;5031522;28;20014;-80
2021/07/13 07:04:39;;;;;;;2.83;2.53;;;48.40;25.10;;;;;;5031799;28;20083;-79
2021/07/13 07:07:04;;;;;;;4.72;3.00;;;48.90;24.60;;;;;;5031541;28;20025;-79
2021/07/13 07:09:30;;;;;;;3.35;3.03;;;48.60;24.50;;;;;;5033981;28;20037;-78
2021/07/13 07:11:56;;;;;;;3.78;3.00;;;48.00;24.90;;;;;;5035342;28;20100;-81
2021/07/13 07:14:22;;;;;;;4.78;2.88;;;48.20;24.60;;;;;;5034881;28;20100;-79
2021/07/13 07:16:48;;;;;;;3.72;2.58;;;46.80;25.10;;;;;;5035270;28;20057;-80
2021/07/13 07:19:13;;;;;;;6.03;2.70;;;46.90;25.00;;;;;;5034873;28;20049;-81
2021/07/13 07:21:39;;;;;;;7.35;3.33;;;47.00;25.20;;;;;;5017169;28;20049;-79
2021/07/13 07:24:05;;;;;;;4.93;3.28;;;48.00;25.30;;;;;;5032166;28;20475;-80
2021/07/13 07:26:31;;;;;;;6.30;3.10;;;48.50;24.60;;;;;;5035026;28;20052;-79
2021/07/13 07:28:57;;;;;;;6.05;2.75;;;48.20;24.80;;;;;;5035480;28;20029;-81
2021/07/13 07:31:23;;;;;;;7.43;3.70;;;48.10;24.80;;;;;;5036448;28;20040;-78
2021/07/13 07:33:49;;;;;;;5.45;3.20;;;48.50;24.80;;;;;;5041887;28;20079;-78
2021/07/13 07:36:15;;;;;;;7.78;3.22;;;48.80;24.60;;;;;;5046143;28;20075;-79
2021/07/13 07:38:41;;;;;;;10.40;2.72;;;48.40;24.70;;;;;;5034784;28;20033;-79
2021/07/13 07:41:07;;;;;;;5.97;2.97;;;48.50;24.80;;;;;;5035638;28;20018;-78
2021/07/13 07:43:33;;;;;;;5.75;3.30;;;48.70;24.40;;;;;;5034918;28;20110;-80
2021/07/13 07:45:59;;;;;;;4.57;3.08;;;48.70;24.40;;;;;;5017131;28;20013;-81
2021/07/13 07:48:25;;;;;;;4.03;3.60;;;49.20;24.50;;;;;;5034734;28;20048;-79
2021/07/13 07:50:51;;;;;;;5.10;3.13;;;50.20;24.10;;;;;;5034971;28;20041;-79
2021/07/13 07:53:17;;;;;;;5.13;2.88;;;50.60;24.00;;;;;;5035054;28;20167;-80
2021/07/13 07:55:43;;;;;;;8.82;3.67;;;50.70;23.80;;;;;;5034430;28;20017;-79
2021/07/13 07:58:10;;;;;;;9.50;3.80;;;51.00;23.80;;;;;;5034775;28;20057;-80
2021/07/13 08:00:36;;;;;;;6.15;3.70;;;50.90;23.40;;;;;;5034609;28;20017;-80
2021/07/13 08:03:03;;;;;;;4.05;3.45;;;51.40;23.80;;;;;;5034848;28;20018;-80
2021/07/13 08:05:30;;;;;;;5.22;3.00;;;51.10;23.60;;;;;;5034327;28;20052;-79
2021/07/13 08:07:56;;;;;;;3.78;2.92;;;51.10;23.50;;;;;;5034468;28;20065;-80
2021/07/13 08:10:22;;;;;;;5.88;3.20;;;50.70;23.30;;;;;;5016466;28;20025;-79
2021/07/13 08:12:48;;;;;;;5.80;3.28;;;51.10;23.50;;;;;;5034068;28;20070;-80
2021/07/13 08:15:15;;;;;;;6.32;3.13;;;50.70;23.30;;;;;;5033988;28;20080;-79
2021/07/13 08:17:41;;;;;;;4.05;3.28;;;51.30;23.10;;;;;;5034094;28;20018;-78
2021/07/13 08:20:10;;;;;;;3.67;3.33;;;52.00;23.20;;;;;;5033124;28;20045;-81
2021/07/13 08:22:37;;;;;;;6.47;3.25;;;51.50;23.10;;;;;;5016262;28;20160;-80
2021/07/13 08:25:04;;;;;;;4.05;3.17;;;50.90;23.10;;;;;;5034048;28;20021;-78
2021/07/13 08:27:29;;;;;;;7.38;3.42;;;51.10;23.40;;;;;;5034091;28;20044;-80
2021/07/13 08:29:56;;;;;;;8.27;3.28;;;51.20;22.80;;;;;;5033876;28;20470;-80
2021/07/13 08:32:22;;;;;;;5.80;3.25;;;50.30;23.20;;;;;;5034089;28;20022;-80
2021/07/13 08:34:48;;;;;;;5.55;3.05;;;50.80;23.30;;;;;;5033994;28;20108;-80
2021/07/13 08:37:14;;;;;;;4.53;2.95;;;50.10;22.80;;;;;;5033916;28;20044;-80
2021/07/13 08:39:40;;;;;;;6.97;3.60;;;50.10;23.30;;;;;;5035306;28;20034;-83
2021/07/13 08:42:07;;;;;;;9.80;3.78;;;50.80;23.30;;;;;;5035755;28;20076;-78
2021/07/13 08:44:34;;;;;;;8.43;3.20;;;51.70;23.00;;;;;;5035912;28;20493;-80
2021/07/13 08:47:00;;;;;;;7.95;3.28;;;52.40;22.70;;;;;;5034314;28;20021;-80
2021/07/13 08:49:26;;;;;;;5.93;2.72;;;51.70;22.50;;;;;;5034171;28;20029;-79
2021/07/13 08:51:52;;;;;;;5.47;3.17;;;50.60;22.60;;;;;;5034055;28;20032;-79
2021/07/13 08:54:18;;;;;;;5.40;3.22;;;51.00;22.80;;;;;;5033391;28;20502;-80
2021/07/13 08:56:44;;;;;;;5.20;3.50;;;51.70;22.80;;;;;;5033560;28;20029;-80
2021/07/13 08:59:10;;;;;;;6.43;3.08;;;52.10;22.80;;;;;;5015633;28;20029;-80
2021/07/13 09:01:36;;;;;;;6.55;3.47;;;52.50;22.40;;;;;;5033547;28;20052;-79
2021/07/13 09:04:05;;;;;;;5.53;3.10;;;52.80;22.40;;;;;;5033531;28;20030;-79
2021/07/13 09:06:55;;;;;;;3.65;2.78;;;52.50;22.60;;;;;;5033374;28;20026;-80
2021/07/13 09:09:33;;;;;;;7.90;3.90;;;52.60;23.00;;;;;;5015298;28;20550;-78
2021/07/13 09:12:05;;;;;;;3.30;2.67;;;52.10;22.90;;;;;;5033325;28;20414;-80
2021/07/13 09:14:49;;;;;;;8.70;3.83;;;51.90;23.00;;;;;;5032666;28;20525;-80
2021/07/13 09:17:35;;;;;;;6.13;3.95;;;51.90;22.90;;;;;;5032773;28;20033;-79
2021/07/13 09:20:10;;;;;;;4.50;2.83;;;50.80;23.30;;;;;;5030001;28;20056;-79
2021/07/13 09:22:38;;;;;;;5.35;3.75;;;50.60;23.20;;;;;;5023841;28;20018;-81
2021/07/13 09:25:21;;;;;;;6.18;3.20;;;50.60;23.20;;;;;;5033349;28;20026;-81
2021/07/13 09:28:11;;;;;;;4.82;3.00;;;51.00;23.30;;;;;;5032895;28;20019;-80
2021/07/13 09:30:39;;;;;;;5.82;2.95;;;50.80;23.20;;;;;;5019821;28;20049;-81
2021/07/13 09:33:16;;;;;;;5.47;3.58;;;50.80;22.90;;;;;;5032804;28;20044;-81
2021/07/13 09:36:04;;;;;;;8.57;4.65;;;51.20;23.20;;;;;;5032879;28;20030;-80
2021/07/13 09:38:35;;;;;;;7.50;3.47;;;51.90;23.00;;;;;;5015062;28;20487;-81
2021/07/13 09:41:06;;;;;;;8.98;3.58;;;51.20;23.00;;;;;;5032860;28;20029;-84
2021/07/13 09:44:01;;;;;;;7.65;3.60;;;51.00;23.20;;;;;;5032510;28;20074;-80
2021/07/13 09:46:34;;;;;;;6.57;3.40;;;51.00;23.10;;;;;;5032972;28;20087;-81
2021/07/13 09:49:21;;;;;;;6.72;3.60;;;49.60;23.10;;;;;;5032683;28;20060;-78
2021/07/13 09:52:02;;;;;;;7.10;3.95;;;49.20;23.60;;;;;;5033711;28;20077;-83
2021/07/13 09:54:43;;;;;;;12.55;3.70;;;49.70;23.70;;;;;;5020366;28;20052;-80
2021/07/13 09:57:14;;;;;;;6.03;3.30;;;50.00;23.60;;;;;;5032181;28;20071;-80
2021/07/13 09:59:40;;;;;;;10.10;3.33;;;50.30;23.40;;;;;;5032195;28;20159;-81
2021/07/13 10:02:08;;;;;;;6.75;4.13;;;50.10;23.40;;;;;;5032244;28;20032;-80
2021/07/13 10:04:36;;;;;;;5.25;3.60;;;50.00;23.60;;;;;;5032393;28;20041;-83
2021/07/13 10:07:08;;;;;;;6.55;3.35;;;50.00;23.70;;;;;;5032384;28;20520;-80
2021/07/13 10:09:39;;;;;;;5.80;3.47;;;50.10;23.80;;;;;;5032673;28;20422;-81
2021/07/13 10:12:12;;;;;;;9.85;4.03;;;49.90;23.60;;;;;;5032730;28;20075;-79
2021/07/13 10:14:39;;;;;;;11.55;4.22;;;49.20;23.60;;;;;;5032196;28;20401;-80
2021/07/13 10:17:08;;;;;;;8.15;3.63;;;48.50;24.00;;;;;;5031875;28;20031;-79
2021/07/13 10:19:38;;;;;;;5.30;3.33;;;48.60;24.30;;;;;;5023466;28;20185;-85
2021/07/13 10:22:05;;;;;;;7.22;4.32;;;48.60;23.80;;;;;;5019676;28;20017;-79
2021/07/13 10:24:33;;;;;;;6.53;3.83;;;48.40;24.20;;;;;;5032122;28;20026;-80
2021/07/13 10:26:59;;;;;;;5.53;3.92;;;48.00;24.30;;;;;;5032010;28;20045;-80
2021/07/13 10:29:34;;;;;;;4.22;3.75;;;47.40;24.10;;;;;;5032034;28;20026;-82
2021/07/13 10:32:08;;;;;;;3.97;3.38;;;47.20;24.70;;;;;;5032259;28;20018;-80
2021/07/13 10:34:48;;;;;;;5.10;4.28;;;47.10;24.60;;;;;;5032331;28;20026;-80
2021/07/13 10:37:32;;;;;;;5.25;4.32;;;46.30;24.90;;;;;;5032196;28;20021;-81
2021/07/13 10:40:33;;;;;;;5.78;4.63;;;44.50;25.30;;;;;;5032401;28;20141;-81
2021/07/13 10:43:03;;;;;;;5.57;4.28;;;42.10;26.60;;;;;;5023313;28;20541;-80
2021/07/13 10:45:39;;;;;;;6.45;4.43;;;40.20;27.90;;;;;;5035868;28;20021;-80
2021/07/13 10:48:22;;;;;;;7.65;5.38;;;39.40;29.10;;;;;;5036221;28;20401;-79
2021/07/13 10:51:03;;;;;;;8.52;5.78;;;38.70;29.40;;;;;;5035904;28;20029;-80
2021/07/13 10:53:39;;;;;;;6.47;4.75;;;;;;;;;;5035751;28;20018;-80
2021/07/13 10:56:09;;;;;;;;;;;37.10;30.30;;;;;;5022853;28;20475;-79
2021/07/13 10:58:35;;;;;;;8.90;5.50;;;;;;;;;;5035656;28;19917;-81
2021/07/13 11:01:10;;;;;;;7.63;5.57;;;36.10;31.70;;;;;;5035846;28;20032;-80
2021/07/13 11:03:36;;;;;;;8.40;5.35;;;36.00;32.80;;;;;;5035898;28;20483;-79
2021/07/13 11:06:09;;;;;;;8.90;5.60;;;35.80;32.70;;;;;;5035903;28;20029;-78
2021/07/13 11:08:41;;;;;;;8.65;5.82;;;35.70;32.90;;;;;;5035796;28;20064;-79
2021/07/13 11:11:30;;;;;;;7.78;6.28;;;35.50;33.20;;;;;;5035444;28;20021;-82
2021/07/13 11:13:59;;;;;;;10.60;7.25;;;35.40;33.70;;;;;;5035081;28;20081;-81
2021/07/13 11:16:27;;;;;;;9.80;6.30;;;35.20;34.10;;;;;;5035240;28;20029;-80
2021/07/13 11:18:55;;;;;;;7.82;5.85;;;35.30;34.00;;;;;;5017139;28;20085;-80
2021/07/13 11:21:22;;;;;;;6.88;5.85;;;35.10;33.40;;;;;;5035409;28;20025;-81
2021/07/13 11:23:55;;;;;;;12.50;6.75;;;34.90;33.80;;;;;;5035730;28;20022;-79
2021/07/13 11:26:24;;;;;;;12.30;5.97;;;34.90;34.00;;;;;;5035228;28;20026;-79
2021/07/13 11:28:54;;;;;;;10.27;6.03;;;34.70;34.50;;;;;;5034986;28;20021;-79
2021/07/13 11:31:30;;;;;;;8.02;5.80;;;34.70;34.90;;;;;;5035110;28;20071;-79
2021/07/13 11:33:56;;;;;;;11.07;7.40;;;34.70;34.40;;;;;;5035178;28;20025;-79
2021/07/13 11:36:42;;;;;;;11.63;6.28;;;34.60;34.70;;;;;;5035552;28;20036;-80
2021/07/13 11:39:09;;;;;;;7.07;5.85;;;34.40;34.60;;;;;;5035085;28;20057;-79
2021/07/13 11:41:36;;;;;;;8.32;6.47;;;34.10;34.90;;;;;;5034493;28;20022;-79
2021/07/13 11:44:04;;;;;;;12.52;9.23;;;34.00;35.40;;;;;;5034673;28;20041;-79
2021/07/13 11:46:42;;;;;;;10.15;6.63;;;34.10;36.00;;;;;;5016886;28;20025;-79
2021/07/13 11:49:12;;;;;;;6.05;5.35;;;34.20;35.20;;;;;;5034402;28;20013;-80
2021/07/13 11:51:41;;;;;;;11.73;6.97;;;34.10;34.20;;;;;;5016671;28;20604;-81
2021/07/13 11:54:14;;;;;;;7.32;6.15;;;34.00;34.60;;;;;;5034269;28;20021;-80
2021/07/13 11:56:43;;;;;;;10.95;6.10;;;33.90;34.90;;;;;;5034727;28;20025;-79
2021/07/13 11:59:09;;;;;;;7.30;5.88;;;33.80;35.20;;;;;;5035148;28;20537;-80
2021/07/13 12:01:37;;;;;;;14.07;6.90;;;33.90;35.20;;;;;;5034781;28;20135;-80
2021/07/13 12:04:07;;;;;;;10.20;7.38;;;33.90;35.90;;;;;;5016832;28;20029;-79
2021/07/13 12:06:35;;;;;;;8.65;7.00;;;33.90;36.10;;;;;;5034977;28;20534;-79
2021/07/13 12:09:11;;;;;;;6.57;5.85;;;33.90;35.80;;;;;;5036052;28;20096;-79
2021/07/13 12:11:43;;;;;;;9.98;6.68;;;33.90;35.60;;;;;;5037850;28;20030;-81
2021/07/13 12:14:12;;;;;;;6.78;6.07;;;34.00;36.30;;;;;;5036329;28;20038;-81
2021/07/13 12:16:38;;;;;;;9.90;6.38;;;33.90;35.30;;;;;;5034425;28;20107;-78
2021/07/13 12:19:18;;;;;;;8.82;7.18;;;33.80;35.80;;;;;;5034557;28;20053;-80
2021/07/13 12:22:13;;;;;;;10.82;7.15;;;33.90;36.30;;;;;;5035131;28;20402;-80
2021/07/13 12:24:41;;;;;;;8.93;6.75;;;34.00;36.50;;;;;;5015169;28;20060;-81
2021/07/13 12:27:11;;;;;;;8.55;6.70;;;34.10;36.50;;;;;;5020603;28;20083;-78
2021/07/13 12:29:45;;;;;;;8.70;7.05;;;34.10;35.50;;;;;;5034952;28;20026;-78
2021/07/13 12:32:38;;;;;;;8.73;7.18;;;34.20;36.60;;;;;;5017186;28;20091;-80
2021/07/13 12:35:07;;;;;;;9.82;6.90;;;34.20;35.90;;;;;;5032110;28;20454;-78
2021/07/13 12:37:34;;;;;;;11.05;7.32;;;34.00;36.10;;;;;;5015990;28;20018;-79
2021/07/13 12:39:59;;;;;;;11.68;7.00;;;33.80;36.60;;;;;;5033983;28;20030;-80
2021/07/13 12:42:26;;;;;;;8.70;6.80;;;33.80;37.20;;;;;;5034018;28;20025;-80
2021/07/13 12:44:54;;;;;;;10.45;6.32;;;33.70;36.20;;;;;;5033924;28;20021;-79
2021/07/13 12:47:32;;;;;;;7.25;6.50;;;33.70;36.20;;;;;;5033548;28;20018;-80
2021/07/13 12:50:28;;;;;;;12.48;6.38;;;33.80;36.10;;;;;;5033660;28;20029;-80
2021/07/13 12:53:00;;;;;;;8.23;6.30;;;33.80;35.80;;;;;;5030435;28;20060;-79
2021/07/13 12:55:47;;;;;;;11.57;7.38;;;33.80;36.10;;;;;;5033728;28;20022;-81
2021/07/13 12:58:24;;;;;;;8.95;6.82;;;33.90;36.30;;;;;;5033600;28;20033;-80